Latest Weather Observations for Mangrove Mountain

IDN60801

Issued at 10:42 pm EDT Monday 10 December 2018 (issued every 10 minutes, with the page automatically refreshed every 10 minutes)

About weather observations | Map of weather stations | Latest weather observations for NSW | Other Formats
Station Details ID: 061375 Name: MANGROVE MOUNTAIN AWS Lat: -33.29 Lon: 151.21 Height: 305.0 m
Data from the previous 72 hours. | See also: Recent months at Mangrove Mountain
Date/Time
EDT
Temp
°C
App
Temp
°C
Dew
Point
°C
Rel
Hum
%
Delta-T
°C
Wind Press
QNH
hPa
Press
MSL
hPa
Rain since
9am
mm
Dir  Spd
km/h
Gust
km/h
Spd
kts
Gust
kts
10/10:30pm 19.2 20.8 18.2 94 0.6 S 7 13 4 7 - - 0.2
10/10:00pm 19.3 21.6 18.5 95 0.5 SE 4 7 2 4 - - 0.2
10/09:30pm 19.3 20.9 18.3 94 0.6 SSE 7 11 4 6 - - 0.2
10/09:00pm 19.8 20.8 17.8 88 1.2 SSE 9 17 5 9 - - 0.0
10/08:30pm 21.1 21.8 17.1 78 2.5 SSE 9 19 5 10 - - 0.0
10/08:00pm 21.7 23.3 18.3 81 2.2 SE 7 11 4 6 - - 0.0
10/07:30pm 22.4 23.8 18.6 79 2.4 SE 9 15 5 8 - - 0.0
10/07:00pm 23.0 25.1 19.0 78 2.6 ENE 6 7 3 4 - - 0.0
10/06:30pm 23.6 26.1 19.1 76 2.9 SSE 4 9 2 5 - - 0.0
10/06:00pm 24.3 26.3 18.7 71 3.6 ENE 6 9 3 5 - - 0.0
10/05:30pm 25.2 27.0 18.2 65 4.5 E 6 9 3 5 - - 0.0
10/05:00pm 24.8 25.9 18.0 66 4.3 NNE 9 13 5 7 - - 0.0
10/04:30pm 25.6 27.2 17.0 59 5.4 SSE 4 6 2 3 - - 0.0
10/04:00pm 26.4 28.5 17.2 57 5.8 SSE 2 6 1 3 - - 0.0
10/03:30pm 26.3 28.7 17.1 57 5.8 CALM 0 6 0 3 - - 0.0
10/03:00pm 26.5 27.7 17.3 57 5.8 S 7 13 4 7 - - 0.0
10/02:30pm 27.5 28.2 17.1 53 6.6 S 9 19 5 10 - - 0.0
10/02:00pm 26.9 27.9 15.3 49 7.1 SSE 4 11 2 6 - - 0.0
10/01:30pm 28.0 28.2 14.3 43 8.3 SSW 6 9 3 5 - - 0.0
10/01:00pm 27.0 28.1 16.6 53 6.5 S 6 9 3 5 - - 0.0
10/12:30pm 27.4 28.9 16.7 52 6.7 ESE 4 13 2 7 - - 0.0
10/12:00pm 25.1 25.4 16.0 57 5.6 S 9 15 5 8 - - 0.0
10/11:30am 25.4 26.6 17.3 61 5.1 SSE 7 13 4 7 - - 0.0
10/11:00am 25.0 26.0 17.7 64 4.6 SSE 9 17 5 9 - - 0.0
10/10:30am 23.1 23.2 16.6 67 4.0 SSE 11 19 6 10 - - 0.0
10/10:00am 23.1 24.2 18.0 73 3.2 S 9 22 5 12 - - 0.0
10/09:30am 21.0 21.2 16.8 77 2.6 S 11 20 6 11 - - 0.0
10/09:00am 21.1 21.5 17.3 79 2.4 SW 11 22 6 12 - - 0.0
10/08:30am 20.7 21.7 17.7 83 1.9 SW 9 19 5 10 - - 0.0
10/08:00am 19.4 20.2 17.2 87 1.4 SW 9 19 5 10 - - 0.0
10/07:30am 19.2 19.6 17.3 89 1.2 WSW 11 20 6 11 - - 0.0
10/07:00am 18.9 20.7 17.4 91 0.9 SW 4 13 2 7 - - 0.0
10/06:30am 18.6 20.2 17.8 95 0.5 WSW 6 11 3 6 - - 0.0
10/06:00am 18.4 20.0 17.9 97 0.3 W 6 9 3 5 - - 0.0
10/05:30am 18.2 20.2 17.9 98 0.2 W 4 7 2 4 - - 0.0
10/05:00am 18.1 19.7 17.9 99 0.1 W 6 9 3 5 - - 0.0
10/04:30am 17.9 19.5 17.9 100 0.0 WSW 6 9 3 5 - - 0.0
10/04:00am 17.6 19.4 17.4 99 0.1 SW 4 7 2 4 - - 0.0
10/03:30am 17.8 19.4 17.8 100 0.0 WSW 6 9 3 5 - - 0.0
10/03:00am 18.0 20.1 18.0 100 0.0 SW 4 7 2 4 - - 0.0
10/02:30am 18.0 20.1 18.0 100 0.0 SSW 4 6 2 3 - - 0.0
10/02:00am 18.0 20.0 17.8 99 0.1 S 4 9 2 5 - - 0.0
10/01:30am 17.7 20.2 17.2 97 0.3 CALM 0 4 0 2 - - 0.0
10/01:00am 18.0 19.8 17.5 97 0.3 S 4 6 2 3 - - 0.0
10/12:30am 17.5 19.8 16.7 95 0.5 CALM 0 4 0 2 - - 0.0
10/12:00am 17.5 19.7 16.4 93 0.7 CALM 0 0 0 0 - - 0.0
 
Date/Time
EDT
Temp
°C
App
Temp
°C
Dew
Point
°C
Rel
Hum
%
Delta-T
°C
Wind Press
QNH
hPa
Press
MSL
hPa
Rain since
9am
mm
Dir  Spd
km/h
Gust
km/h
Spd
kts
Gust
kts
09/11:30pm 17.4 19.4 16.1 92 0.8 CALM 0 0 0 0 - - 0.0
09/11:00pm 17.8 19.8 16.1 90 1.0 CALM 0 0 0 0 - - 0.0
09/10:30pm 18.3 19.7 16.5 89 1.1 E 4 4 2 2 - - 0.0
09/10:00pm 19.0 20.6 16.8 87 1.3 E 4 6 2 3 - - 0.0
09/09:30pm 20.0 22.0 17.0 83 1.8 SE 2 4 1 2 - - 0.0
09/09:00pm 20.6 21.7 17.2 81 2.1 SSE 7 15 4 8 - - 0.0
09/08:30pm 21.4 22.7 17.2 77 2.6 SSE 6 9 3 5 - - 0.0
09/08:00pm 22.4 22.8 16.4 69 3.7 SSE 9 15 5 8 - - 0.0
09/07:30pm 23.5 23.9 16.3 64 4.4 E 9 15 5 8 - - 0.0
09/07:00pm 25.3 25.4 15.6 55 6.0 E 9 15 5 8 - - 0.0
09/06:30pm 26.2 26.1 15.0 50 6.8 E 9 15 5 8 - - 0.0
09/06:00pm 26.7 26.2 16.0 52 6.6 E 13 19 7 10 - - 0.0
09/05:30pm 27.6 27.7 16.6 51 6.9 ENE 11 20 6 11 - - 0.0
09/05:00pm 28.2 27.7 15.8 47 7.7 E 13 20 7 11 - - 0.0
09/04:30pm 28.4 27.9 16.0 47 7.7 ENE 13 20 7 11 - - 0.0
09/04:00pm 29.4 29.7 16.9 47 7.9 ENE 11 17 6 9 - - 0.0
09/03:30pm 29.2 29.2 17.1 48 7.7 E 13 20 7 11 - - 0.0
09/03:00pm 29.3 29.0 16.5 46 8.1 ESE 13 20 7 11 - - 0.0
09/02:30pm 30.3 31.1 16.3 42 8.8 E 7 15 4 8 - - 0.0
09/02:00pm 29.9 30.5 15.2 41 9.1 SSE 6 13 3 7 - - 0.0
09/01:30pm 29.5 30.4 16.0 44 8.5 NNE 6 9 3 5 - - 0.0
09/01:00pm 28.8 30.0 17.3 49 7.3 ENE 7 15 4 8 - - 0.0
09/12:30pm 28.1 28.9 17.3 52 6.9 ENE 9 17 5 9 - - 0.0
09/12:00pm 28.8 29.9 16.7 48 7.7 ENE 6 11 3 6 - - 0.0
09/11:30am 27.9 28.4 15.5 46 7.7 E 7 15 4 8 - - 0.0
09/11:00am 27.2 27.5 14.6 46 7.7 ENE 6 13 3 7 - - 0.0
09/10:30am 25.8 27.0 15.8 54 6.2 S 4 9 2 5 - - 0.0
09/10:00am 24.3 25.1 15.8 59 5.2 S 6 9 3 5 - - 0.0
09/09:30am 23.2 24.6 16.5 66 4.1 ESE 4 9 2 5 - - 0.0
09/09:00am 22.9 25.0 17.1 70 3.6 NE 2 9 1 5 - - 0.0
09/08:30am 21.4 23.0 16.8 75 2.8 ENE 4 6 2 3 - - 0.0
09/08:00am 20.5 21.9 17.3 82 2.0 ENE 6 11 3 6 - - 0.0
09/07:30am 19.2 20.4 17.3 89 1.2 E 7 11 4 6 - - 0.0
09/07:00am 17.3 19.6 16.8 97 0.3 CALM 0 0 0 0 - - 0.0
09/06:30am 16.7 18.1 16.5 99 0.1 ENE 4 6 2 3 - - 0.0
09/06:00am 15.5 15.9 15.2 98 0.2 ENE 7 9 4 5 - - 0.0
09/05:30am 15.2 15.5 14.9 98 0.2 ENE 7 11 4 6 - - 0.0
09/05:00am 15.6 16.1 15.1 97 0.3 NE 6 9 3 5 - - 0.0
09/04:30am 16.1 16.7 15.8 98 0.2 ENE 7 11 4 6 - - 0.0
09/04:00am 15.5 16.0 15.0 97 0.3 ENE 6 9 3 5 - - 0.0
09/03:30am 15.7 16.1 15.2 97 0.3 ENE 7 11 4 6 - - 0.0
09/03:00am 15.4 16.0 14.3 93 0.6 ENE 4 6 2 3 - - 0.0
09/02:30am 16.6 17.3 16.0 96 0.4 ENE 7 11 4 6 - - 0.0
09/02:00am 16.6 17.2 15.8 95 0.5 ENE 7 9 4 5 - - 0.0
09/01:30am 16.6 17.2 15.8 95 0.5 ENE 7 11 4 6 - - 0.0
09/01:00am 16.7 17.2 15.6 93 0.7 ENE 7 9 4 5 - - 0.0
09/12:30am 17.0 17.5 15.5 91 0.9 ENE 7 11 4 6 - - 0.0
09/12:00am 17.3 18.4 15.5 89 1.1 NNE 4 7 2 4 - - 0.0
 
Date/Time
EDT
Temp
°C
App
Temp
°C
Dew
Point
°C
Rel
Hum
%
Delta-T
°C
Wind Press
QNH
hPa
Press
MSL
hPa
Rain since
9am
mm
Dir  Spd
km/h
Gust
km/h
Spd
kts
Gust
kts
08/11:30pm 17.9 18.8 16.1 89 1.1 NNE 6 9 3 5 - - 0.0
08/11:00pm 17.8 19.8 16.0 89 1.1 CALM 0 6 0 3 - - 0.0
08/10:30pm 18.5 20.3 16.5 88 1.2 ENE 2 4 1 2 - - 0.0
08/10:00pm 18.7 19.8 16.7 88 1.2 ENE 6 11 3 6 - - 0.0
08/09:30pm 19.0 19.6 16.8 87 1.3 ENE 9 17 5 9 - - 0.0
08/09:00pm 19.3 19.9 16.9 86 1.5 ENE 9 20 5 11 - - 0.0
08/08:30pm 19.7 20.2 16.5 82 2.0 ENE 9 17 5 9 - - 0.0
08/08:00pm 20.4 20.8 16.2 77 2.6 E 9 19 5 10 - - 0.0
08/07:30pm 21.5 21.5 16.2 72 3.2 ENE 11 17 6 9 - - 0.0
08/07:00pm 22.5 22.1 16.1 67 3.9 E 13 22 7 12 - - 0.0
08/06:30pm 22.8 21.8 15.6 64 4.4 ENE 15 26 8 14 - - 0.0
08/06:00pm 24.8 24.1 15.4 56 5.7 ENE 13 22 7 12 - - 0.0
08/05:30pm 25.8 24.6 16.1 55 6.0 E 17 24 9 13 - - 0.0
08/05:00pm 26.3 25.1 15.0 49 6.9 ENE 15 24 8 13 - - 0.0
08/04:30pm 27.0 25.9 15.4 49 7.1 ENE 15 24 8 13 - - 0.0
08/04:00pm 27.3 25.7 15.0 47 7.5 E 17 24 9 13 - - 0.0
08/03:30pm 28.4 26.9 15.3 45 8.1 E 17 26 9 14 - - 0.0
08/03:00pm 28.6 27.7 15.8 45 8.0 ESE 15 24 8 13 - - 0.0
08/02:30pm 29.2 28.3 13.8 39 9.3 ESE 11 19 6 10 - - 0.0
08/02:00pm 28.4 28.3 13.9 41 8.8 NE 7 15 4 8 - - 0.0
08/01:30pm 28.8 28.4 15.3 43 8.4 NE 11 17 6 9 - - 0.0
08/01:00pm 27.8 27.5 15.5 47 7.6 ENE 11 15 6 8 - - 0.0
08/12:30pm 27.9 28.4 15.5 46 7.7 ENE 7 19 4 10 - - 0.0
08/12:00pm 26.7 27.1 14.8 48 7.3 NNE 6 13 3 7 - - 0.0
08/11:30am 25.8 26.0 14.3 49 6.9 NW 6 11 3 6 - - 0.0
08/11:00am 25.1 25.6 14.9 53 6.2 NE 6 13 3 7 - - 0.0
08/10:30am 24.6 25.5 15.0 55 5.8 NE 4 7 2 4 - - 0.0
08/10:00am 22.8 23.6 13.6 56 5.4 ENE 2 6 1 3 - - 0.0
08/09:30am 22.1 22.7 14.2 61 4.7 NE 4 6 2 3 - - 0.0
08/09:00am 19.9 20.5 13.1 65 3.9 NW 2 6 1 3 - - 0.0
08/08:30am 19.2 19.6 13.8 71 3.1 NW 4 6 2 3 - - 0.0
08/08:00am 18.3 18.7 13.8 75 2.6 NNW 4 9 2 5 - - 0.0
08/07:30am 17.5 17.5 13.6 78 2.2 NNE 6 9 3 5 - - 0.0
08/07:00am 16.2 16.0 13.7 85 1.4 NE 7 11 4 6 - - 0.0
08/06:30am 15.3 15.4 13.8 91 0.9 NE 6 13 3 7 - - 0.0
08/06:00am 14.2 14.2 13.6 96 0.3 ENE 6 9 3 5 - - 0.0
08/05:30am 12.7 13.0 12.1 96 0.3 ENE 2 4 1 2 - - 0.0
08/05:00am 12.7 12.5 11.9 95 0.4 ENE 4 6 2 3 - - 0.0
08/04:30am 13.0 13.7 12.2 95 0.4 CALM 0 2 0 1 - - 0.0
08/04:00am 13.1 13.3 12.0 93 0.6 NE 2 6 1 3 - - 0.0
08/03:30am 13.4 13.4 12.3 93 0.6 NE 4 6 2 3 - - 0.0
08/03:00am 13.9 14.6 12.3 90 0.9 CALM 0 4 0 2 - - 0.0
08/02:30am 14.9 14.7 13.1 89 1.0 NE 6 9 3 5 - - 0.0
08/02:00am 15.4 16.0 13.2 87 1.2 NE 2 7 1 4 - - 0.0
08/01:30am 15.8 16.1 13.5 86 1.3 NE 4 11 2 6 - - 0.0
08/01:00am 16.4 16.4 13.7 84 1.5 ENE 6 15 3 8 - - 0.0
08/12:30am 16.8 15.3 14.1 84 1.6 NE 15 22 8 12 - - 0.0
08/12:00am 17.0 15.1 14.1 83 1.7 ENE 17 26 9 14 - - 0.0
 
Date/Time
EDT
Temp
°C
App
Temp
°C
Dew
Point
°C
Rel
Hum
%
Delta-T
°C
Wind Press
QNH
hPa
Press
MSL
hPa
Rain since
9am
mm
Dir  Spd
km/h
Gust
km/h
Spd
kts
Gust
kts
07/11:30pm 17.2 15.3 14.3 83 1.7 ENE 17 30 9 16 - - 0.0
07/11:00pm 17.4 16.1 14.7 84 1.6 ENE 15 28 8 15 - - 0.0

Other Formats:

Comma delimited format used in spreadsheet applications
http://www.bom.gov.au/fwo/IDN60801/IDN60801.95774.axf

JavaScript Object Notation format (JSON) in row-major order
http://www.bom.gov.au/fwo/IDN60801/IDN60801.95774.json